Time;durP1;ratioP1;P1;durP2;ratioP2;P2;SDS_P1;SDS_P2;PMS_P1;PMS_P2;Temp;Humidity;BMP_temperature;BMP_pressure;BME280_temperature;BME280_humidity;BME280_pressure;Samples;Min_cycle;Max_cycle;Signal;HPM_P1;HPM_P2
2021/09/11 00:00:42;;;;;;;24.45;15.70;;;;;;;16.47;60.80;100000.69;1714012;82;21037;-69
2021/09/11 00:03:08;;;;;;;20.75;15.65;;;;;;;16.49;60.76;100002.59;1735072;82;20935;-70
2021/09/11 00:05:36;;;;;;;22.55;14.38;;;;;;;16.53;60.66;99999.57;1735270;82;20986;-70
2021/09/11 00:08:04;;;;;;;25.80;15.43;;;;;;;16.54;60.50;99998.48;1735819;82;21033;-71
2021/09/11 00:10:32;;;;;;;23.27;14.63;;;;;;;16.57;60.40;99998.72;1739794;82;20943;-68
2021/09/11 00:12:59;;;;;;;23.15;15.18;;;;;;;16.60;60.30;100000.63;1732063;82;20981;-69
2021/09/11 00:15:31;;;;;;;26.70;16.17;;;;;;;16.62;60.18;100003.88;1730403;82;20968;-68
2021/09/11 00:18:00;;;;;;;21.65;13.08;;;;;;;16.64;60.09;99997.64;1734240;82;21038;-85
2021/09/11 00:20:29;;;;;;;23.22;14.35;;;;;;;16.66;60.03;100000.86;1724411;82;21085;-68
2021/09/11 00:22:57;;;;;;;20.32;13.10;;;;;;;16.69;59.96;99999.74;1735195;82;22940;-75
2021/09/11 00:25:23;;;;;;;19.25;12.13;;;;;;;16.70;60.16;99997.84;1734001;82;21013;-67
2021/09/11 00:27:50;;;;;;;18.90;11.97;;;;;;;16.71;60.20;100000.83;1710183;83;21472;-66
2021/09/11 00:30:18;;;;;;;15.10;11.38;;;;;;;16.70;60.71;100000.56;1717340;82;21040;-67
2021/09/11 00:32:44;;;;;;;17.50;14.03;;;;;;;16.66;61.01;100000.86;1708564;83;21052;-68
2021/09/11 00:35:15;;;;;;;18.57;13.55;;;;;;;16.61;60.92;99998.99;1687542;84;22117;-67
2021/09/11 00:37:41;;;;;;;20.30;12.65;;;;;;;16.59;60.85;100008.53;1689394;83;21603;-66
2021/09/11 00:40:10;;;;;;;14.33;11.85;;;;;;;16.55;60.98;100000.89;1735004;82;21071;-67
2021/09/11 00:42:37;;;;;;;16.37;13.25;;;;;;;16.53;60.68;100001.73;1739696;82;21059;-71
2021/09/11 00:45:08;;;;;;;19.42;11.70;;;;;;;16.52;60.96;99999.30;1734678;82;21149;-67
2021/09/11 00:47:34;;;;;;;13.95;10.82;;;;;;;16.48;60.98;99998.23;1730710;82;21089;-68
2021/09/11 00:50:02;;;;;;;14.15;11.05;;;;;;;16.48;60.99;100000.41;1730390;82;20921;-67
2021/09/11 00:52:29;;;;;;;16.30;11.08;;;;;;;16.48;60.82;99999.05;1730761;82;20988;-67
2021/09/11 00:54:55;;;;;;;19.50;13.03;;;;;;;16.47;60.85;99996.06;1730327;82;21056;-68
2021/09/11 00:57:22;;;;;;;19.52;12.78;;;;;;;16.47;60.76;99994.71;1730501;83;20957;-67
2021/09/11 00:59:49;;;;;;;17.98;12.78;;;;;;;16.46;61.15;99998.51;1730355;82;21254;-68
2021/09/11 01:02:15;;;;;;;14.00;11.93;;;;;;;16.42;61.51;99996.64;1730543;82;20969;-66
2021/09/11 01:04:42;;;;;;;19.27;13.35;;;;;;;16.37;62.16;100004.81;1736660;82;21010;-67
2021/09/11 01:07:08;;;;;;;31.37;26.55;;;;;;;16.29;62.66;99999.98;1716953;82;21775;-68
2021/09/11 01:09:34;;;;;;;19.17;16.85;;;;;;;16.23;62.92;100001.91;1711606;82;21567;-67
2021/09/11 01:12:04;;;;;;;21.73;14.28;;;;;;;16.13;63.37;100001.41;1733325;82;20953;-66
2021/09/11 01:14:30;;;;;;;16.23;12.50;;;;;;;16.03;63.78;99999.28;1709934;83;20972;-66
2021/09/11 01:16:58;;;;;;;18.95;14.30;;;;;;;15.86;64.28;99998.28;1731241;82;21043;-67
2021/09/11 01:19:24;;;;;;;18.37;13.48;;;;;;;15.67;64.86;99998.07;1735499;82;21015;-68
2021/09/11 01:21:51;;;;;;;18.85;12.80;;;;;;;15.59;65.15;99999.97;1735187;82;21018;-67
2021/09/11 01:24:18;;;;;;;16.00;12.70;;;;;;;15.46;65.48;99996.98;1705061;83;21871;-66
2021/09/11 01:26:50;;;;;;;18.10;12.60;;;;;;;15.36;65.84;99995.66;1719952;82;21035;-68
2021/09/11 01:29:18;;;;;;;14.58;12.03;;;;;;;15.31;66.07;99992.95;1694552;83;20930;-68
2021/09/11 01:31:44;;;;;;;19.85;12.65;;;;;;;15.23;66.30;99999.20;1723372;82;21007;-67
2021/09/11 01:34:10;;;;;;;48.85;37.83;;;;;;;15.13;66.61;99997.04;1735135;82;20962;-67
2021/09/11 01:36:37;;;;;;;27.13;19.50;;;;;;;15.04;66.89;99994.07;1735366;82;21191;-69
2021/09/11 01:39:03;;;;;;;22.32;15.85;;;;;;;14.94;67.06;99994.61;1735155;82;20935;-70
2021/09/11 01:41:30;;;;;;;17.87;12.73;;;;;;;14.86;67.35;99989.74;1714095;82;20998;-67
2021/09/11 01:43:57;;;;;;;21.90;13.95;;;;;;;14.80;67.53;99991.63;1714135;82;21102;-66
2021/09/11 01:46:23;;;;;;;17.98;11.08;;;;;;;14.80;67.53;99997.05;1698329;83;21038;-67
2021/09/11 01:48:51;;;;;;;13.98;10.35;;;;;;;14.84;67.37;99994.88;1721708;82;21935;-68
2021/09/11 01:51:18;;;;;;;15.18;10.03;;;;;;;14.98;67.05;99997.04;1713979;82;21014;-67
2021/09/11 01:53:44;;;;;;;14.05;8.95;;;;;;;15.13;66.67;99997.04;1735784;82;21523;-90
2021/09/11 01:56:11;;;;;;;13.98;9.05;;;;;;;15.27;66.13;99992.69;1735368;82;20970;-66
2021/09/11 01:58:37;;;;;;;11.85;9.73;;;;;;;15.41;65.61;99997.81;1714685;82;21519;-68
2021/09/11 02:01:03;;;;;;;13.58;8.80;;;;;;;15.54;65.15;99993.77;1716104;82;21054;-69
2021/09/11 02:03:30;;;;;;;11.40;8.83;;;;;;;15.65;64.63;99992.64;1739512;82;21002;-66
2021/09/11 02:05:56;;;;;;;13.10;8.95;;;;;;;15.76;64.15;99992.06;1716666;82;21499;-67
2021/09/11 02:08:23;;;;;;;10.43;9.18;;;;;;;15.85;63.78;99993.94;1738552;82;21034;-67
2021/09/11 02:10:50;;;;;;;10.90;8.45;;;;;;;15.94;63.40;99986.03;1714710;82;21079;-67
2021/09/11 02:13:16;;;;;;;14.73;9.40;;;;;;;16.02;63.05;99986.80;1739849;82;21200;-66
2021/09/11 02:15:43;;;;;;;13.32;8.80;;;;;;;16.09;62.73;99992.75;1715688;82;20971;-69
2021/09/11 02:18:09;;;;;;;12.15;10.25;;;;;;;16.10;62.44;99989.77;1715874;82;21150;-71
2021/09/11 02:20:37;;;;;;;12.85;10.75;;;;;;;16.13;62.24;99999.23;1740048;82;21002;-68
2021/09/11 02:23:04;;;;;;;10.38;8.43;;;;;;;16.14;62.04;99996.25;1740791;82;20992;-67
2021/09/11 02:25:32;;;;;;;12.05;9.10;;;;;;;16.14;61.81;99996.25;1733556;82;21560;-66
2021/09/11 02:27:58;;;;;;;12.13;8.78;;;;;;;16.16;61.77;99999.23;1713753;82;20947;-67
2021/09/11 02:30:25;;;;;;;10.55;8.78;;;;;;;16.14;61.79;99997.61;1734575;82;21500;-68
2021/09/11 02:32:52;;;;;;;8.95;7.83;;;;;;;16.12;61.79;99993.00;1716407;82;20942;-70
2021/09/11 02:35:18;;;;;;;12.65;9.05;;;;;;;16.14;61.77;100001.69;1739883;82;21026;-67
2021/09/11 02:37:44;;;;;;;11.00;8.73;;;;;;;16.15;61.84;99997.07;1738669;82;21196;-66
2021/09/11 02:40:12;;;;;;;10.63;8.05;;;;;;;16.15;61.94;99998.42;1739544;82;21526;-68
2021/09/11 02:42:40;;;;;;;13.53;8.98;;;;;;;16.15;62.07;99995.71;1739962;82;21499;-69
2021/09/11 02:45:09;;;;;;;14.70;8.98;;;;;;;16.15;62.25;99999.78;1732047;82;21005;-69
2021/09/11 02:47:38;;;;;;;9.45;7.67;;;;;;;16.14;62.35;99996.25;1730426;82;20953;-79
2021/09/11 02:50:07;;;;;;;14.90;9.48;;;;;;;16.15;62.35;100001.14;1735420;82;21050;-69
2021/09/11 02:52:33;;;;;;;15.55;9.70;;;;;;;16.15;62.55;100002.50;1675052;84;21057;-67
2021/09/11 02:54:59;;;;;;;11.05;8.60;;;;;;;16.14;62.50;100000.33;1705474;84;20992;-68
2021/09/11 02:57:26;;;;;;;10.60;8.40;;;;;;;16.14;62.61;99997.61;1705519;84;21001;-68
2021/09/11 02:59:52;;;;;;;11.33;9.45;;;;;;;16.15;62.55;99997.07;1699750;84;21069;-68
2021/09/11 03:02:19;;;;;;;10.40;8.95;;;;;;;16.15;62.51;99994.35;1628654;87;21201;-69
2021/09/11 03:04:45;;;;;;;12.05;8.95;;;;;;;16.16;62.60;99991.10;1699738;83;21073;-68
2021/09/11 03:07:13;;;;;;;9.60;8.55;;;;;;;16.15;62.63;99990.28;1700186;83;21071;-84
2021/09/11 03:09:39;;;;;;;10.55;8.43;;;;;;;16.13;62.64;99991.09;1706460;83;21558;-68
2021/09/11 03:12:07;;;;;;;12.63;8.53;;;;;;;16.14;62.71;99989.47;1742229;82;21017;-67
2021/09/11 03:14:34;;;;;;;11.83;8.88;;;;;;;16.14;62.88;99990.02;1742109;82;21961;-68
2021/09/11 03:17:01;;;;;;;11.97;8.45;;;;;;;16.13;62.84;99987.84;1714331;83;20939;-67
2021/09/11 03:19:27;;;;;;;15.18;9.93;;;;;;;16.12;62.93;99993.00;1726774;83;22291;-66
2021/09/11 03:21:55;;;;;;;15.43;9.65;;;;;;;16.10;62.98;99991.13;1742769;82;21163;-71
2021/09/11 03:24:21;;;;;;;12.40;9.40;;;;;;;16.09;63.04;99991.39;1713795;83;21041;-68
2021/09/11 03:26:47;;;;;;;12.07;8.90;;;;;;;16.07;63.09;99998.98;1698447;83;22443;-71
2021/09/11 03:29:14;;;;;;;12.90;9.35;;;;;;;16.04;63.16;99994.13;1676363;85;21055;-67
2021/09/11 03:31:41;;;;;;;10.98;8.45;;;;;;;16.03;63.28;99997.92;1718950;82;21573;-66
2021/09/11 03:34:07;;;;;;;28.38;23.12;;;;;;;16.01;63.39;99996.05;1718971;82;21008;-67
2021/09/11 03:36:33;;;;;;;17.62;15.23;;;;;;;16.01;63.42;100002.30;1742617;82;21048;-67
2021/09/11 03:39:00;;;;;;;13.25;9.73;;;;;;;16.00;63.51;99997.95;1712991;83;21032;-68
2021/09/11 03:41:26;;;;;;;10.93;9.45;;;;;;;15.99;63.61;100001.74;1690115;83;21685;-67
2021/09/11 03:43:53;;;;;;;18.17;10.48;;;;;;;15.95;63.66;99991.19;1714842;83;21057;-67
2021/09/11 03:46:19;;;;;;;12.68;10.30;;;;;;;15.94;63.80;99994.98;1714615;83;21019;-68
2021/09/11 03:48:46;;;;;;;14.13;11.25;;;;;;;15.92;63.92;100000.43;1711404;82;21042;-68
2021/09/11 03:51:13;;;;;;;13.68;9.48;;;;;;;15.88;64.02;99997.44;1744188;82;21940;-67
2021/09/11 03:53:41;;;;;;;16.30;11.28;;;;;;;15.83;64.20;99996.64;1744106;82;20990;-69
2021/09/11 03:56:07;;;;;;;14.85;11.03;;;;;;;15.74;64.55;100002.37;1718722;82;21515;-68
2021/09/11 03:58:35;;;;;;;22.27;16.35;;;;;;;15.64;64.86;99995.89;1742393;82;20994;-67
2021/09/11 04:01:03;;;;;;;17.37;13.45;;;;;;;15.58;65.19;99998.91;1721440;83;21579;-67
2021/09/11 04:03:31;;;;;;;18.25;12.15;;;;;;;15.48;65.51;100005.13;1730036;82;22322;-72
2021/09/11 04:05:58;;;;;;;12.03;10.05;;;;;;;15.43;65.78;100005.69;1709832;83;21009;-68
2021/09/11 04:08:25;;;;;;;12.63;10.25;;;;;;;15.36;65.98;100003.24;1715897;82;21527;-68
2021/09/11 04:10:53;;;;;;;12.82;8.78;;;;;;;15.35;66.23;100006.25;1733831;82;20963;-67
2021/09/11 04:13:21;;;;;;;17.10;10.32;;;;;;;15.34;66.36;100005.44;1681301;84;21037;-67
2021/09/11 04:15:49;;;;;;;20.95;8.98;;;;;;;15.36;66.34;100010.55;1737563;82;21008;-69
2021/09/11 04:18:15;;;;;;;13.95;8.73;;;;;;;15.34;66.46;100006.78;1735661;82;21524;-68
2021/09/11 04:20:42;;;;;;;11.08;7.58;;;;;;;15.38;66.52;100006.50;1697735;84;21070;-67
2021/09/11 04:23:08;;;;;;;8.98;8.08;;;;;;;15.49;66.42;100006.73;1679634;85;21556;-67
2021/09/11 04:25:35;;;;;;;10.08;8.08;;;;;;;15.62;66.16;100011.64;1711716;83;21485;-68
2021/09/11 04:28:01;;;;;;;10.78;8.38;;;;;;;15.76;65.78;100017.83;1732542;82;21166;-66
2021/09/11 04:30:27;;;;;;;9.45;8.45;;;;;;;15.86;65.44;100017.80;1716133;82;21091;-68
2021/09/11 04:32:54;;;;;;;10.65;8.20;;;;;;;15.94;65.10;100019.94;1737411;82;20966;-66
2021/09/11 04:35:20;;;;;;;9.03;7.53;;;;;;;16.02;64.79;100014.75;1715966;82;21137;-67
2021/09/11 04:37:47;;;;;;;10.78;8.55;;;;;;;16.08;64.53;100019.06;1716056;82;21047;-67
2021/09/11 04:40:14;;;;;;;11.30;8.53;;;;;;;16.12;64.33;100017.42;1661592;85;21883;-68
2021/09/11 04:42:41;;;;;;;14.28;9.60;;;;;;;16.17;64.18;100019.30;1737426;82;21074;-68
2021/09/11 04:45:09;;;;;;;10.80;8.05;;;;;;;16.18;64.17;100018.75;1735214;82;20912;-68
2021/09/11 04:47:35;;;;;;;9.30;7.33;;;;;;;16.20;64.20;100018.76;1735324;82;21015;-68
2021/09/11 04:50:05;;;;;;;10.88;8.33;;;;;;;16.21;64.19;100014.93;1724594;82;20947;-70
2021/09/11 04:52:34;;;;;;;31.82;23.70;;;;;;;16.25;64.14;100021.45;1737667;82;20999;-73
2021/09/11 04:55:00;;;;;;;15.53;13.30;;;;;;;16.27;64.13;100020.61;1737294;82;21680;-67
2021/09/11 04:57:26;;;;;;;24.18;19.52;;;;;;;16.29;64.22;100016.27;1737460;82;21057;-66
2021/09/11 04:59:53;;;;;;;19.40;14.83;;;;;;;16.31;64.35;100018.95;1730763;82;22012;-68
2021/09/11 05:02:19;;;;;;;20.20;13.95;;;;;;;16.33;64.46;100016.78;1730816;83;20880;-70
2021/09/11 05:04:45;;;;;;;16.42;11.85;;;;;;;16.35;64.43;100019.23;1703386;84;21038;-70
2021/09/11 05:07:12;;;;;;;12.43;10.95;;;;;;;16.38;64.46;100018.66;1702727;84;21405;-67
2021/09/11 05:09:40;;;;;;;14.95;11.88;;;;;;;16.40;64.46;100020.56;1716838;82;21005;-70
2021/09/11 05:12:07;;;;;;;15.20;11.00;;;;;;;16.42;64.47;100012.39;1717969;83;21069;-68
2021/09/11 05:14:33;;;;;;;13.65;12.00;;;;;;;16.48;64.61;100019.42;1717929;83;21077;-67
2021/09/11 05:17:00;;;;;;;16.05;13.60;;;;;;;16.52;64.59;100016.41;1698169;83;21995;-67
2021/09/11 05:19:26;;;;;;;20.20;18.12;;;;;;;16.56;64.65;100003.88;1722269;82;20951;-68
2021/09/11 05:21:54;;;;;;;19.65;17.60;;;;;;;16.61;64.68;100007.69;1732356;82;21531;-67
2021/09/11 05:24:21;;;;;;;18.60;15.18;;;;;;;16.65;64.86;100001.41;1731965;82;21022;-68
2021/09/11 05:26:49;;;;;;;21.23;16.95;;;;;;;16.70;65.29;100006.80;1732412;82;20962;-72
2021/09/11 05:29:16;;;;;;;21.52;14.30;;;;;;;16.76;65.65;100010.30;1709979;82;21110;-70
2021/09/11 05:31:43;;;;;;;19.05;11.53;;;;;;;16.81;65.87;100009.72;1732115;82;20934;-68
2021/09/11 05:34:10;;;;;;;19.00;11.57;;;;;;;16.86;66.11;100015.12;1732075;82;20947;-68
2021/09/11 05:36:36;;;;;;;18.60;11.55;;;;;;;16.91;66.08;100016.98;1728919;82;21891;-67
2021/09/11 05:39:03;;;;;;;20.02;12.28;;;;;;;16.97;66.15;100012.60;1724393;82;21050;-68
2021/09/11 05:41:30;;;;;;;11.48;10.15;;;;;;;17.07;66.22;100014.97;1682364;84;21079;-67
2021/09/11 05:43:56;;;;;;;26.85;11.25;;;;;;;17.17;66.43;100008.09;1682222;84;21057;-68
2021/09/11 05:46:24;;;;;;;17.17;10.90;;;;;;;17.26;66.40;100011.81;1707048;82;21078;-67
2021/09/11 05:48:51;;;;;;;16.15;11.93;;;;;;;17.36;66.28;100010.36;1704880;82;21083;-67
2021/09/11 05:51:17;;;;;;;22.52;12.20;;;;;;;17.43;66.18;100010.27;1717871;83;20985;-68
2021/09/11 05:53:46;;;;;;;13.48;12.07;;;;;;;17.51;66.01;100004.74;1718111;83;22327;-67
2021/09/11 05:56:12;;;;;;;17.80;12.58;;;;;;;17.59;65.74;100007.44;1717798;83;21613;-68
2021/09/11 05:58:40;;;;;;;15.98;10.75;;;;;;;17.65;65.59;100009.01;1720360;82;21016;-70
2021/09/11 06:01:07;;;;;;;20.15;11.12;;;;;;;17.73;65.46;100007.01;1725403;83;21481;-70
2021/09/11 06:03:34;;;;;;;14.73;11.93;;;;;;;17.79;65.35;100012.08;1731090;82;21054;-67
2021/09/11 06:06:00;;;;;;;18.37;12.37;;;;;;;17.87;65.23;100010.66;1725464;82;21742;-67
2021/09/11 06:08:27;;;;;;;16.87;11.88;;;;;;;17.95;65.07;100011.91;1698477;84;21058;-67
2021/09/11 06:10:53;;;;;;;17.17;12.07;;;;;;;18.03;64.93;100012.66;1723725;83;20982;-67
2021/09/11 06:13:21;;;;;;;26.00;13.15;;;;;;;18.10;64.77;100012.55;1725883;83;21298;-67
2021/09/11 06:15:49;;;;;;;18.40;12.95;;;;;;;18.17;64.61;100014.38;1726289;83;20947;-72
2021/09/11 06:18:15;;;;;;;16.40;12.20;;;;;;;18.25;64.44;100005.55;1690668;83;21215;-67
2021/09/11 06:20:43;;;;;;;19.35;11.95;;;;;;;18.33;64.25;100005.98;1718978;83;20967;-69
2021/09/11 06:23:11;;;;;;;18.48;13.55;;;;;;;18.41;64.06;100008.88;1718599;83;22257;-75
2021/09/11 06:25:38;;;;;;;15.35;12.10;;;;;;;18.50;63.92;100009.02;1712344;83;21005;-67
2021/09/11 06:28:04;;;;;;;20.77;13.40;;;;;;;18.57;64.08;100013.02;1720568;83;21008;-69
2021/09/11 06:30:31;;;;;;;20.25;13.13;;;;;;;18.66;63.99;100022.14;1705790;83;21091;-68
2021/09/11 06:32:58;;;;;;;19.80;12.37;;;;;;;18.75;64.05;100020.14;1704535;83;21009;-69
2021/09/11 06:35:24;;;;;;;16.65;13.00;;;;;;;18.83;64.01;100016.73;1698014;83;21090;-68
2021/09/11 06:37:53;;;;;;;19.77;12.60;;;;;;;18.91;64.00;100018.23;1720910;83;21581;-68
2021/09/11 06:40:20;;;;;;;16.50;13.53;;;;;;;19.01;63.77;100015.34;1712096;83;21015;-67
2021/09/11 06:42:47;;;;;;;19.25;14.40;;;;;;;19.08;63.62;100015.79;1705071;83;21292;-68
2021/09/11 06:45:13;;;;;;;19.40;12.80;;;;;;;19.17;63.41;100013.19;1725345;83;20983;-68
2021/09/11 06:47:42;;;;;;;18.10;13.22;;;;;;;19.25;63.19;100011.13;1706322;83;21030;-68
2021/09/11 06:50:11;;;;;;;25.08;14.58;;;;;;;19.34;62.95;100012.61;1718885;83;21055;-69
2021/09/11 06:52:37;;;;;;;17.57;14.58;;;;;;;19.41;62.53;100017.94;1700325;83;21012;-68
2021/09/11 06:55:07;;;;;;;14.55;11.95;;;;;;;19.49;62.19;100021.36;1693399;83;21113;-68
2021/09/11 06:57:33;;;;;;;18.42;12.78;;;;;;;19.56;61.91;100021.80;1715686;83;21050;-68
2021/09/11 06:59:59;;;;;;;19.67;13.50;;;;;;;19.65;61.92;100021.90;1680401;84;21086;-68
2021/09/11 07:02:26;;;;;;;20.90;18.23;;;;;;;19.73;61.91;100026.65;1708483;83;21051;-68
2021/09/11 07:04:52;;;;;;;30.88;18.30;;;;;;;19.81;61.66;100021.84;1664530;85;21010;-68
2021/09/11 07:07:20;;;;;;;21.07;14.28;;;;;;;19.89;61.41;100023.89;1742349;81;22196;-68
2021/09/11 07:09:47;;;;;;;16.65;14.10;;;;;;;19.98;61.01;100024.80;1717698;82;21601;-69
2021/09/11 07:12:15;;;;;;;17.55;13.90;;;;;;;20.07;60.71;100030.91;1740449;82;21022;-69
2021/09/11 07:14:42;;;;;;;23.38;14.38;;;;;;;20.15;60.34;100030.18;1719636;83;21515;-69
2021/09/11 07:17:08;;;;;;;27.42;15.95;;;;;;;20.22;60.05;100030.04;1720910;83;21022;-69
2021/09/11 07:19:35;;;;;;;13.83;12.15;;;;;;;20.30;59.95;100030.70;1722391;83;21149;-68
2021/09/11 07:22:04;;;;;;;18.48;14.05;;;;;;;20.37;59.40;100029.75;1712333;83;21545;-67
2021/09/11 07:24:30;;;;;;;19.17;15.15;;;;;;;20.45;58.43;100035.04;1703121;83;21094;-67
2021/09/11 07:26:56;;;;;;;16.75;13.55;;;;;;;20.52;58.12;100028.61;1706135;83;20940;-68
2021/09/11 07:29:23;;;;;;;18.98;14.28;;;;;;;20.58;57.69;100023.26;1699632;84;21073;-69
2021/09/11 07:31:50;;;;;;;19.37;12.35;;;;;;;20.67;57.46;100021.41;1712789;83;22098;-69
2021/09/11 07:34:16;;;;;;;20.32;15.58;;;;;;;20.74;57.36;100025.09;1710238;83;20950;-71
2021/09/11 07:36:43;;;;;;;20.72;13.85;;;;;;;20.82;57.23;100015.59;1699573;84;21023;-69
2021/09/11 07:39:09;;;;;;;22.30;14.68;;;;;;;20.92;56.66;100015.09;1660813;85;21061;-68
2021/09/11 07:41:36;;;;;;;24.98;16.15;;;;;;;21.00;56.54;100018.47;1717120;82;21695;-66
2021/09/11 07:44:04;;;;;;;18.87;15.88;;;;;;;21.08;56.52;100012.25;1740876;82;21324;-69
2021/09/11 07:46:32;;;;;;;17.57;13.85;;;;;;;21.27;56.35;100017.80;1735475;82;21014;-69
2021/09/11 07:48:59;;;;;;;24.47;12.37;;;;;;;21.27;56.35;100017.80;1711295;82;21038;-70
2021/09/11 07:51:26;;;;;;;19.67;13.08;;;;;;;21.37;55.95;100015.36;1733062;82;21496;-69
2021/09/11 07:53:52;;;;;;;13.30;11.78;;;;;;;21.56;54.55;100017.88;1734348;82;20991;-70
2021/09/11 07:56:19;;;;;;;27.02;14.47;;;;;;;21.56;54.55;100017.88;1731852;82;21982;-70
2021/09/11 07:58:47;;;;;;;15.63;12.65;;;;;;;21.63;54.52;100022.36;1735331;82;20924;-70
2021/09/11 08:01:14;;;;;;;15.78;12.30;;;;;;;21.70;54.20;100020.77;1743906;82;20958;-70
2021/09/11 08:03:40;;;;;;;18.40;11.83;;;;;;;21.77;53.76;100019.52;1742387;82;21063;-68
2021/09/11 08:06:08;;;;;;;16.30;12.28;;;;;;;21.82;53.66;100022.11;1741932;82;21003;-68
2021/09/11 08:08:36;;;;;;;13.80;11.22;;;;;;;21.89;53.56;100020.52;1742050;82;21151;-69
2021/09/11 08:11:03;;;;;;;19.02;14.58;;;;;;;21.97;53.25;100018.95;1742292;82;20963;-68
2021/09/11 08:13:30;;;;;;;24.55;14.98;;;;;;;22.02;53.00;100016.88;1742151;82;21532;-68
2021/09/11 08:15:56;;;;;;;19.50;13.30;;;;;;;22.08;52.98;100017.55;1741916;82;21905;-70
2021/09/11 08:18:24;;;;;;;22.77;13.10;;;;;;;22.16;53.10;100008.53;1742377;82;20991;-68
2021/09/11 08:20:54;;;;;;;21.27;13.83;;;;;;;22.26;52.25;100011.54;1711981;82;21126;-68
2021/09/11 08:23:21;;;;;;;17.70;13.08;;;;;;;22.35;51.57;100013.77;1731901;82;20931;-68
2021/09/11 08:25:50;;;;;;;14.73;11.30;;;;;;;22.42;51.27;100005.30;1710150;83;21038;-69
2021/09/11 08:28:17;;;;;;;19.98;12.63;;;;;;;22.51;51.23;100003.36;1714534;83;21167;-69
2021/09/11 08:30:43;;;;;;;16.42;13.18;;;;;;;22.57;50.33;99997.97;1731873;82;20939;-68
2021/09/11 08:33:11;;;;;;;21.07;12.07;;;;;;;22.64;50.10;99993.95;1716916;82;21193;-69
2021/09/11 08:35:39;;;;;;;15.13;11.50;;;;;;;22.72;50.17;99996.72;1718829;82;20997;-68
2021/09/11 08:38:06;;;;;;;15.65;13.43;;;;;;;22.83;50.11;99994.47;1717801;82;21175;-67
2021/09/11 08:40:34;;;;;;;18.48;11.90;;;;;;;22.92;48.70;99996.07;1742508;82;21026;-69
2021/09/11 08:43:02;;;;;;;16.35;12.95;;;;;;;22.97;48.31;99994.50;1741485;80;20991;-68
2021/09/11 08:45:28;;;;;;;13.60;11.45;;;;;;;23.06;48.53;99996.45;1685063;85;21130;-69
2021/09/11 08:47:56;;;;;;;26.48;14.30;;;;;;;23.09;48.46;99993.85;1713609;83;20954;-68
2021/09/11 08:50:22;;;;;;;14.93;12.15;;;;;;;23.12;48.27;99990.45;1679241;85;21042;-70
2021/09/11 08:52:50;;;;;;;15.25;12.43;;;;;;;23.14;47.97;99984.64;1732038;82;21476;-67
2021/09/11 08:55:18;;;;;;;15.30;12.80;;;;;;;23.24;48.06;99986.48;1735710;80;21049;-68
2021/09/11 08:58:08;;;;;;;17.23;12.13;;;;;;;23.36;48.23;99983.85;1744199;82;21945;-68
2021/09/11 09:00:53;;;;;;;15.05;11.28;;;;;;;23.48;47.96;99988.70;1716718;82;21021;-71
2021/09/11 09:03:43;;;;;;;13.22;11.00;;;;;;;23.61;47.20;99984.94;1731053;82;20947;-70
2021/09/11 09:06:15;;;;;;;15.25;12.23;;;;;;;23.72;46.10;99986.75;1742607;82;21622;-68
2021/09/11 09:08:43;;;;;;;;;;;;;;;23.85;46.10;99986.52;1746698;82;21081;-69
2021/09/11 09:11:27;;;;;;;14.63;11.95;;;;;;;23.90;45.50;99977.29;1716864;82;21083;-70
2021/09/11 09:14:03;;;;;;;12.55;10.50;;;;;;;23.95;45.55;99979.04;1708868;82;20943;-70
2021/09/11 09:16:33;;;;;;;15.25;11.05;;;;;;;24.03;45.37;99980.36;1727324;82;20971;-69
2021/09/11 09:19:04;;;;;;;30.35;24.75;;;;;;;24.10;45.32;99976.53;1717367;82;20986;-69
2021/09/11 09:21:31;;;;;;;27.20;14.00;;;;;;;24.16;45.35;99976.61;1737813;82;21117;-68
2021/09/11 09:24:04;;;;;;;19.62;12.07;;;;;;;24.20;45.09;99974.80;1712161;82;21888;-69
2021/09/11 09:26:52;;;;;;;10.30;9.30;;;;;;;24.18;44.76;99974.32;1740778;82;20897;-70
2021/09/11 09:29:19;;;;;;;11.75;10.18;;;;;;;24.25;44.22;99971.05;1740479;82;21039;-72
2021/09/11 09:31:46;;;;;;;15.25;11.83;;;;;;;24.35;43.09;99959.66;1743078;80;21046;-69
2021/09/11 09:34:37;;;;;;;15.08;12.50;;;;;;;24.39;42.36;99962.55;1739648;82;21019;-68
2021/09/11 09:37:10;;;;;;;12.00;10.65;;;;;;;24.42;42.66;99964.61;1711931;83;21142;-69
2021/09/11 09:39:45;;;;;;;13.83;10.68;;;;;;;24.51;42.20;99966.16;1696979;83;21043;-73
2021/09/11 09:42:12;;;;;;;14.70;11.10;;;;;;;24.55;42.37;99964.37;1728299;83;21571;-69
2021/09/11 09:44:44;;;;;;;11.93;10.20;;;;;;;24.65;42.33;99959.80;1723613;83;21046;-70
2021/09/11 09:47:14;;;;;;;18.95;10.65;;;;;;;24.73;42.11;99962.27;1699894;84;21071;-70
2021/09/11 09:49:40;;;;;;;11.80;10.32;;;;;;;24.84;41.80;99962.66;1712043;83;21874;-70
2021/09/11 09:52:07;;;;;;;13.00;10.43;;;;;;;25.00;41.66;99954.82;1722264;83;20967;-68
2021/09/11 09:54:33;;;;;;;12.23;10.80;;;;;;;25.15;40.59;99958.31;1723994;83;20990;-69
2021/09/11 09:57:00;;;;;;;16.20;11.63;;;;;;;25.24;40.60;99956.83;1714285;83;21436;-70
2021/09/11 09:59:26;;;;;;;19.12;14.10;;;;;;;25.24;41.00;99956.03;1723729;83;21423;-68
2021/09/11 10:01:53;;;;;;;16.62;10.82;;;;;;;25.19;41.91;99953.73;1701453;82;21216;-70
2021/09/11 10:04:21;;;;;;;17.87;10.85;;;;;;;25.21;41.46;99956.15;1717251;83;21009;-76
2021/09/11 10:06:57;;;;;;;16.75;11.20;;;;;;;25.31;41.50;99952.96;1698134;83;21011;-70
2021/09/11 10:09:26;;;;;;;20.43;11.68;;;;;;;25.39;40.93;99955.37;1712092;83;20990;-70
2021/09/11 10:11:56;;;;;;;13.40;11.05;;;;;;;25.37;40.75;99948.04;1735185;82;21551;-75
2021/09/11 10:14:32;;;;;;;15.50;10.88;;;;;;;25.40;40.82;99945.97;1709698;82;21148;-68
2021/09/11 10:17:04;;;;;;;25.08;11.90;;;;;;;25.46;40.93;99950.12;1730492;82;21595;-72
2021/09/11 10:19:42;;;;;;;15.90;10.88;;;;;;;25.61;40.36;99945.34;1709287;83;20967;-76
2021/09/11 10:22:09;;;;;;;18.95;15.30;;;;;;;25.68;40.07;99947.51;1735030;82;21093;-74
2021/09/11 10:24:36;;;;;;;13.70;11.68;;;;;;;25.74;39.75;99944.19;1737697;82;21606;-74
2021/09/11 10:27:09;;;;;;;12.15;10.65;;;;;;;25.71;39.17;99942.11;1737556;82;22234;-73
2021/09/11 10:29:51;;;;;;;12.35;10.63;;;;;;;25.70;39.16;99936.39;1737599;82;20994;-74
2021/09/11 10:32:38;;;;;;;15.38;12.58;;;;;;;25.68;38.54;99937.30;1737713;82;21019;-73
2021/09/11 10:35:09;;;;;;;12.63;10.48;;;;;;;25.57;38.63;99936.13;1716553;82;21015;-75
2021/09/11 10:37:47;;;;;;;16.30;12.30;;;;;;;25.57;38.66;99930.63;1712228;83;21010;-75
2021/09/11 10:40:41;;;;;;;19.02;12.85;;;;;;;25.47;39.30;99931.84;1737640;82;21508;-76
2021/09/11 10:43:10;;;;;;;17.50;11.30;;;;;;;25.51;39.56;99923.73;1737522;82;20975;-73
2021/09/11 10:45:58;;;;;;;11.83;10.48;;;;;;;25.56;39.34;99928.44;1716600;82;21595;-75
2021/09/11 10:48:51;;;;;;;17.27;11.48;;;;;;;25.61;39.02;99920.55;1737505;82;21038;-74
2021/09/11 10:51:21;;;;;;;25.08;13.15;;;;;;;25.74;39.02;99910.31;1740384;82;20955;-74
2021/09/11 10:54:23;;;;;;;13.43;11.22;;;;;;;25.92;39.15;99909.72;1700048;83;21054;-73
2021/09/11 10:56:52;;;;;;;14.73;11.57;;;;;;;26.11;38.71;99907.73;1683597;85;21045;-75
2021/09/11 10:59:23;;;;;;;16.70;10.63;;;;;;;26.26;37.84;99904.28;1655897;86;21548;-73
2021/09/11 11:02:08;;;;;;;14.18;11.65;;;;;;;26.34;38.06;99897.81;1675964;85;21985;-75
2021/09/11 11:04:52;;;;;;;12.35;9.73;;;;;;;26.42;37.63;99898.84;1683733;85;21504;-75
2021/09/11 11:07:28;;;;;;;14.98;10.80;;;;;;;26.43;36.15;99899.05;1659949;85;21207;-74
2021/09/11 11:10:06;;;;;;;12.03;10.08;;;;;;;26.29;35.85;99895.30;1679003;85;22223;-76
2021/09/11 11:12:40;;;;;;;14.40;9.88;;;;;;;26.35;35.18;99893.10;1687372;83;20966;-77
2021/09/11 11:15:12;;;;;;;12.18;10.00;;;;;;;26.33;35.48;99894.82;1685489;83;21060;-75
2021/09/11 11:17:46;;;;;;;10.88;9.78;;;;;;;26.28;36.02;99889.55;1728975;83;21537;-74
2021/09/11 11:20:17;;;;;;;12.05;10.65;;;;;;;26.34;35.89;99890.11;1683534;85;20915;-73
2021/09/11 11:22:44;;;;;;;11.80;10.50;;;;;;;26.38;36.25;99887.68;1728175;83;20913;-74